sensor_id;sensor_type;location;lat;lon;timestamp;P1;durP1;ratioP1;P2;durP2;ratioP2
24447;SDS011;13348;50.984;5.822;2022-11-11T00:00:36;4.47;;;2.28;;
24447;SDS011;13348;50.984;5.822;2022-11-11T00:03:03;1.60;;;1.50;;
24447;SDS011;13348;50.984;5.822;2022-11-11T00:05:32;5.80;;;2.60;;
24447;SDS011;13348;50.984;5.822;2022-11-11T00:07:59;4.40;;;2.15;;
24447;SDS011;13348;50.984;5.822;2022-11-11T00:10:27;6.95;;;2.63;;
24447;SDS011;13348;50.984;5.822;2022-11-11T00:12:57;4.13;;;2.40;;
24447;SDS011;13348;50.984;5.822;2022-11-11T00:15:25;7.25;;;2.50;;
24447;SDS011;13348;50.984;5.822;2022-11-11T00:17:54;5.50;;;3.13;;
24447;SDS011;13348;50.984;5.822;2022-11-11T00:20:39;7.97;;;2.63;;
24447;SDS011;13348;50.984;5.822;2022-11-11T00:23:25;7.72;;;2.60;;
24447;SDS011;13348;50.984;5.822;2022-11-11T00:26:19;4.90;;;2.67;;
24447;SDS011;13348;50.984;5.822;2022-11-11T00:28:46;6.25;;;2.50;;
24447;SDS011;13348;50.984;5.822;2022-11-11T00:31:13;4.32;;;2.33;;
24447;SDS011;13348;50.984;5.822;2022-11-11T00:33:42;9.10;;;2.58;;
24447;SDS011;13348;50.984;5.822;2022-11-11T00:36:09;8.23;;;2.67;;
24447;SDS011;13348;50.984;5.822;2022-11-11T00:38:35;5.60;;;2.58;;
24447;SDS011;13348;50.984;5.822;2022-11-11T00:41:13;2.70;;;2.10;;
24447;SDS011;13348;50.984;5.822;2022-11-11T00:43:42;5.32;;;2.28;;
24447;SDS011;13348;50.984;5.822;2022-11-11T00:46:10;2.67;;;2.00;;
24447;SDS011;13348;50.984;5.822;2022-11-11T00:48:57;2.78;;;2.10;;
24447;SDS011;13348;50.984;5.822;2022-11-11T00:51:41;4.43;;;2.17;;
24447;SDS011;13348;50.984;5.822;2022-11-11T00:54:09;5.82;;;2.42;;
24447;SDS011;13348;50.984;5.822;2022-11-11T00:56:36;3.53;;;1.98;;
24447;SDS011;13348;50.984;5.822;2022-11-11T00:59:04;4.00;;;2.25;;
24447;SDS011;13348;50.984;5.822;2022-11-11T01:01:33;3.30;;;2.20;;
24447;SDS011;13348;50.984;5.822;2022-11-11T01:04:03;4.90;;;2.28;;
24447;SDS011;13348;50.984;5.822;2022-11-11T01:06:30;4.93;;;2.17;;
24447;SDS011;13348;50.984;5.822;2022-11-11T01:09:00;5.82;;;2.55;;
24447;SDS011;13348;50.984;5.822;2022-11-11T01:11:30;5.40;;;2.70;;
24447;SDS011;13348;50.984;5.822;2022-11-11T01:13:58;3.95;;;3.03;;
24447;SDS011;13348;50.984;5.822;2022-11-11T01:16:25;6.32;;;3.40;;
24447;SDS011;13348;50.984;5.822;2022-11-11T01:18:53;5.82;;;3.20;;
24447;SDS011;13348;50.984;5.822;2022-11-11T01:21:22;6.40;;;3.17;;
24447;SDS011;13348;50.984;5.822;2022-11-11T01:23:51;6.05;;;3.05;;
24447;SDS011;13348;50.984;5.822;2022-11-11T01:26:20;7.57;;;3.05;;
24447;SDS011;13348;50.984;5.822;2022-11-11T01:28:49;5.22;;;2.80;;
24447;SDS011;13348;50.984;5.822;2022-11-11T01:31:17;3.65;;;2.63;;
24447;SDS011;13348;50.984;5.822;2022-11-11T01:33:45;6.88;;;2.50;;
24447;SDS011;13348;50.984;5.822;2022-11-11T01:36:13;5.85;;;2.50;;
24447;SDS011;13348;50.984;5.822;2022-11-11T01:38:43;4.82;;;2.33;;
24447;SDS011;13348;50.984;5.822;2022-11-11T01:41:16;5.72;;;2.75;;
24447;SDS011;13348;50.984;5.822;2022-11-11T01:43:58;4.18;;;2.25;;
24447;SDS011;13348;50.984;5.822;2022-11-11T01:46:30;4.93;;;2.50;;
24447;SDS011;13348;50.984;5.822;2022-11-11T01:49:03;2.85;;;2.17;;
24447;SDS011;13348;50.984;5.822;2022-11-11T01:51:45;7.40;;;2.55;;
24447;SDS011;13348;50.984;5.822;2022-11-11T01:54:25;5.30;;;2.80;;
24447;SDS011;13348;50.984;5.822;2022-11-11T01:56:57;5.25;;;3.15;;
24447;SDS011;13348;50.984;5.822;2022-11-11T01:59:28;4.35;;;2.50;;
24447;SDS011;13348;50.984;5.822;2022-11-11T02:01:57;5.38;;;2.63;;
24447;SDS011;13348;50.984;5.822;2022-11-11T02:04:25;5.95;;;3.15;;
24447;SDS011;13348;50.984;5.822;2022-11-11T02:07:10;5.57;;;2.65;;
24447;SDS011;13348;50.984;5.822;2022-11-11T02:09:40;4.07;;;2.28;;
24447;SDS011;13348;50.984;5.822;2022-11-11T02:12:10;4.20;;;2.22;;
24447;SDS011;13348;50.984;5.822;2022-11-11T02:14:56;4.72;;;2.55;;
24447;SDS011;13348;50.984;5.822;2022-11-11T02:17:26;3.70;;;2.55;;
24447;SDS011;13348;50.984;5.822;2022-11-11T02:19:57;5.90;;;3.00;;
24447;SDS011;13348;50.984;5.822;2022-11-11T02:22:28;5.93;;;2.73;;
24447;SDS011;13348;50.984;5.822;2022-11-11T02:25:03;5.30;;;2.65;;
24447;SDS011;13348;50.984;5.822;2022-11-11T02:27:33;6.57;;;2.90;;
24447;SDS011;13348;50.984;5.822;2022-11-11T02:30:04;5.68;;;2.42;;
24447;SDS011;13348;50.984;5.822;2022-11-11T02:32:40;3.80;;;2.13;;
24447;SDS011;13348;50.984;5.822;2022-11-11T02:35:13;5.50;;;2.50;;
24447;SDS011;13348;50.984;5.822;2022-11-11T02:37:41;4.68;;;2.38;;
24447;SDS011;13348;50.984;5.822;2022-11-11T02:40:13;5.67;;;2.63;;
24447;SDS011;13348;50.984;5.822;2022-11-11T02:42:42;4.47;;;2.60;;
24447;SDS011;13348;50.984;5.822;2022-11-11T02:45:10;4.35;;;2.25;;
24447;SDS011;13348;50.984;5.822;2022-11-11T02:47:37;8.27;;;3.00;;
24447;SDS011;13348;50.984;5.822;2022-11-11T02:50:04;5.95;;;3.13;;
24447;SDS011;13348;50.984;5.822;2022-11-11T02:52:32;4.50;;;2.72;;
24447;SDS011;13348;50.984;5.822;2022-11-11T02:54:59;3.05;;;2.35;;
24447;SDS011;13348;50.984;5.822;2022-11-11T02:57:28;5.53;;;2.30;;
24447;SDS011;13348;50.984;5.822;2022-11-11T02:59:56;3.47;;;2.17;;
24447;SDS011;13348;50.984;5.822;2022-11-11T03:02:25;4.68;;;2.83;;
24447;SDS011;13348;50.984;5.822;2022-11-11T03:04:52;6.82;;;2.85;;
24447;SDS011;13348;50.984;5.822;2022-11-11T03:07:19;5.28;;;2.90;;
24447;SDS011;13348;50.984;5.822;2022-11-11T03:09:47;8.07;;;3.00;;
24447;SDS011;13348;50.984;5.822;2022-11-11T03:12:14;11.77;;;2.63;;
24447;SDS011;13348;50.984;5.822;2022-11-11T03:14:42;5.28;;;2.80;;
24447;SDS011;13348;50.984;5.822;2022-11-11T03:17:10;4.40;;;2.42;;
24447;SDS011;13348;50.984;5.822;2022-11-11T03:19:54;8.70;;;2.92;;
24447;SDS011;13348;50.984;5.822;2022-11-11T03:22:41;6.65;;;2.63;;
24447;SDS011;13348;50.984;5.822;2022-11-11T03:25:08;6.30;;;2.75;;
24447;SDS011;13348;50.984;5.822;2022-11-11T03:27:52;9.02;;;2.40;;
24447;SDS011;13348;50.984;5.822;2022-11-11T03:30:20;4.20;;;2.85;;
24447;SDS011;13348;50.984;5.822;2022-11-11T03:32:48;11.55;;;2.63;;
24447;SDS011;13348;50.984;5.822;2022-11-11T03:35:15;4.55;;;2.15;;
24447;SDS011;13348;50.984;5.822;2022-11-11T03:37:42;3.90;;;2.00;;
24447;SDS011;13348;50.984;5.822;2022-11-11T03:40:26;8.52;;;2.58;;
24447;SDS011;13348;50.984;5.822;2022-11-11T03:42:53;6.63;;;2.78;;
24447;SDS011;13348;50.984;5.822;2022-11-11T03:45:22;2.47;;;1.98;;
24447;SDS011;13348;50.984;5.822;2022-11-11T03:47:49;5.07;;;2.45;;
24447;SDS011;13348;50.984;5.822;2022-11-11T03:50:16;7.00;;;2.25;;
24447;SDS011;13348;50.984;5.822;2022-11-11T03:52:43;2.55;;;1.55;;
24447;SDS011;13348;50.984;5.822;2022-11-11T03:55:10;1.95;;;1.20;;
24447;SDS011;13348;50.984;5.822;2022-11-11T03:57:39;4.82;;;2.00;;
24447;SDS011;13348;50.984;5.822;2022-11-11T04:00:07;1.65;;;1.42;;
24447;SDS011;13348;50.984;5.822;2022-11-11T04:02:37;3.17;;;1.30;;
24447;SDS011;13348;50.984;5.822;2022-11-11T04:05:22;2.00;;;1.80;;
24447;SDS011;13348;50.984;5.822;2022-11-11T04:08:08;5.68;;;2.25;;
24447;SDS011;13348;50.984;5.822;2022-11-11T04:10:55;5.82;;;2.38;;
24447;SDS011;13348;50.984;5.822;2022-11-11T04:13:23;3.28;;;1.90;;
24447;SDS011;13348;50.984;5.822;2022-11-11T04:16:07;4.10;;;2.40;;
24447;SDS011;13348;50.984;5.822;2022-11-11T04:18:36;4.80;;;2.47;;
24447;SDS011;13348;50.984;5.822;2022-11-11T04:21:29;1.67;;;1.58;;
24447;SDS011;13348;50.984;5.822;2022-11-11T04:24:08;4.25;;;2.30;;
24447;SDS011;13348;50.984;5.822;2022-11-11T04:26:54;5.15;;;2.08;;
24447;SDS011;13348;50.984;5.822;2022-11-11T04:29:23;2.13;;;1.92;;
24447;SDS011;13348;50.984;5.822;2022-11-11T04:31:52;5.25;;;2.55;;
24447;SDS011;13348;50.984;5.822;2022-11-11T04:34:38;5.97;;;2.03;;
24447;SDS011;13348;50.984;5.822;2022-11-11T04:37:06;2.55;;;1.80;;
24447;SDS011;13348;50.984;5.822;2022-11-11T04:39:33;3.08;;;2.15;;
24447;SDS011;13348;50.984;5.822;2022-11-11T04:42:18;2.53;;;1.83;;
24447;SDS011;13348;50.984;5.822;2022-11-11T04:44:45;9.73;;;2.50;;
24447;SDS011;13348;50.984;5.822;2022-11-11T04:47:30;3.72;;;2.00;;
24447;SDS011;13348;50.984;5.822;2022-11-11T04:49:59;3.88;;;2.22;;
24447;SDS011;13348;50.984;5.822;2022-11-11T04:52:26;2.85;;;2.05;;
24447;SDS011;13348;50.984;5.822;2022-11-11T04:54:53;2.90;;;2.10;;
24447;SDS011;13348;50.984;5.822;2022-11-11T04:57:39;3.80;;;2.20;;
24447;SDS011;13348;50.984;5.822;2022-11-11T05:00:08;3.53;;;2.03;;
24447;SDS011;13348;50.984;5.822;2022-11-11T05:02:37;2.38;;;1.75;;
24447;SDS011;13348;50.984;5.822;2022-11-11T05:05:23;1.77;;;1.67;;
24447;SDS011;13348;50.984;5.822;2022-11-11T05:07:51;3.50;;;1.85;;
24447;SDS011;13348;50.984;5.822;2022-11-11T05:10:36;2.60;;;1.90;;
24447;SDS011;13348;50.984;5.822;2022-11-11T05:13:03;3.00;;;1.88;;
24447;SDS011;13348;50.984;5.822;2022-11-11T05:15:48;1.33;;;1.23;;
24447;SDS011;13348;50.984;5.822;2022-11-11T05:18:33;3.42;;;1.90;;
24447;SDS011;13348;50.984;5.822;2022-11-11T05:21:19;2.25;;;1.65;;
24447;SDS011;13348;50.984;5.822;2022-11-11T05:23:50;5.38;;;1.90;;
24447;SDS011;13348;50.984;5.822;2022-11-11T05:26:35;2.35;;;1.85;;
24447;SDS011;13348;50.984;5.822;2022-11-11T05:29:02;2.58;;;2.38;;
24447;SDS011;13348;50.984;5.822;2022-11-11T05:31:29;3.33;;;1.50;;
24447;SDS011;13348;50.984;5.822;2022-11-11T05:33:56;3.15;;;1.70;;
24447;SDS011;13348;50.984;5.822;2022-11-11T05:36:25;1.10;;;1.10;;
24447;SDS011;13348;50.984;5.822;2022-11-11T05:38:52;2.65;;;1.80;;
24447;SDS011;13348;50.984;5.822;2022-11-11T05:41:20;2.58;;;1.92;;
24447;SDS011;13348;50.984;5.822;2022-11-11T05:43:47;2.60;;;1.83;;
24447;SDS011;13348;50.984;5.822;2022-11-11T05:46:14;2.30;;;2.10;;
24447;SDS011;13348;50.984;5.822;2022-11-11T05:48:41;2.42;;;1.60;;
24447;SDS011;13348;50.984;5.822;2022-11-11T05:51:22;1.17;;;1.17;;
24447;SDS011;13348;50.984;5.822;2022-11-11T05:56:22;3.92;;;2.13;;
24447;SDS011;13348;50.984;5.822;2022-11-11T05:58:50;2.53;;;1.58;;
24447;SDS011;13348;50.984;5.822;2022-11-11T06:01:17;1.48;;;1.38;;
24447;SDS011;13348;50.984;5.822;2022-11-11T06:03:45;2.20;;;1.48;;
24447;SDS011;13348;50.984;5.822;2022-11-11T06:06:12;1.23;;;1.23;;
24447;SDS011;13348;50.984;5.822;2022-11-11T06:08:40;4.28;;;2.08;;
24447;SDS011;13348;50.984;5.822;2022-11-11T06:11:08;1.60;;;1.50;;
24447;SDS011;13348;50.984;5.822;2022-11-11T06:13:35;1.15;;;1.08;;
24447;SDS011;13348;50.984;5.822;2022-11-11T06:16:03;2.60;;;1.77;;
24447;SDS011;13348;50.984;5.822;2022-11-11T06:18:30;3.35;;;1.90;;
24447;SDS011;13348;50.984;5.822;2022-11-11T06:20:58;1.48;;;1.38;;
24447;SDS011;13348;50.984;5.822;2022-11-11T06:23:26;1.20;;;1.20;;
24447;SDS011;13348;50.984;5.822;2022-11-11T06:25:54;3.88;;;2.17;;
24447;SDS011;13348;50.984;5.822;2022-11-11T06:28:42;1.80;;;1.70;;
24447;SDS011;13348;50.984;5.822;2022-11-11T06:31:11;2.13;;;1.80;;
24447;SDS011;13348;50.984;5.822;2022-11-11T06:33:40;2.33;;;2.13;;
24447;SDS011;13348;50.984;5.822;2022-11-11T06:36:08;2.95;;;2.00;;
24447;SDS011;13348;50.984;5.822;2022-11-11T06:38:37;1.52;;;1.42;;
24447;SDS011;13348;50.984;5.822;2022-11-11T06:41:04;1.70;;;1.60;;
24447;SDS011;13348;50.984;5.822;2022-11-11T06:43:32;1.42;;;1.35;;
24447;SDS011;13348;50.984;5.822;2022-11-11T06:46:00;2.38;;;1.50;;
24447;SDS011;13348;50.984;5.822;2022-11-11T06:48:28;2.35;;;1.40;;
24447;SDS011;13348;50.984;5.822;2022-11-11T06:50:59;3.97;;;1.60;;
24447;SDS011;13348;50.984;5.822;2022-11-11T06:53:28;1.58;;;1.08;;
24447;SDS011;13348;50.984;5.822;2022-11-11T06:55:55;2.53;;;1.70;;
24447;SDS011;13348;50.984;5.822;2022-11-11T06:58:23;1.75;;;1.65;;
24447;SDS011;13348;50.984;5.822;2022-11-11T07:00:50;1.98;;;1.67;;
24447;SDS011;13348;50.984;5.822;2022-11-11T07:03:19;2.30;;;1.58;;
24447;SDS011;13348;50.984;5.822;2022-11-11T07:05:47;5.65;;;1.52;;
24447;SDS011;13348;50.984;5.822;2022-11-11T07:08:16;1.60;;;1.20;;
24447;SDS011;13348;50.984;5.822;2022-11-11T07:10:44;1.35;;;1.25;;
24447;SDS011;13348;50.984;5.822;2022-11-11T07:13:13;3.17;;;1.73;;
24447;SDS011;13348;50.984;5.822;2022-11-11T07:15:41;7.03;;;2.30;;
24447;SDS011;13348;50.984;5.822;2022-11-11T07:18:08;2.95;;;1.70;;
24447;SDS011;13348;50.984;5.822;2022-11-11T07:20:37;2.85;;;1.73;;
24447;SDS011;13348;50.984;5.822;2022-11-11T07:23:05;1.25;;;1.23;;
24447;SDS011;13348;50.984;5.822;2022-11-11T07:25:33;0.88;;;0.88;;
24447;SDS011;13348;50.984;5.822;2022-11-11T07:28:00;3.28;;;1.40;;
24447;SDS011;13348;50.984;5.822;2022-11-11T07:30:27;1.95;;;1.52;;
24447;SDS011;13348;50.984;5.822;2022-11-11T07:32:54;1.50;;;1.40;;
24447;SDS011;13348;50.984;5.822;2022-11-11T07:35:21;1.90;;;1.40;;
24447;SDS011;13348;50.984;5.822;2022-11-11T07:37:50;5.05;;;1.48;;
24447;SDS011;13348;50.984;5.822;2022-11-11T07:40:18;1.98;;;1.30;;
24447;SDS011;13348;50.984;5.822;2022-11-11T07:42:45;1.73;;;1.55;;
24447;SDS011;13348;50.984;5.822;2022-11-11T07:45:13;2.72;;;1.55;;
24447;SDS011;13348;50.984;5.822;2022-11-11T07:47:43;1.70;;;1.60;;
24447;SDS011;13348;50.984;5.822;2022-11-11T07:50:11;2.88;;;1.52;;
24447;SDS011;13348;50.984;5.822;2022-11-11T07:52:38;1.92;;;1.73;;
24447;SDS011;13348;50.984;5.822;2022-11-11T07:55:07;2.30;;;1.60;;
24447;SDS011;13348;50.984;5.822;2022-11-11T07:57:35;1.60;;;1.50;;
24447;SDS011;13348;50.984;5.822;2022-11-11T08:00:03;2.75;;;2.03;;
24447;SDS011;13348;50.984;5.822;2022-11-11T08:02:31;1.08;;;1.08;;
24447;SDS011;13348;50.984;5.822;2022-11-11T08:04:58;1.50;;;1.27;;
24447;SDS011;13348;50.984;5.822;2022-11-11T08:07:26;1.48;;;1.35;;
24447;SDS011;13348;50.984;5.822;2022-11-11T08:09:53;1.67;;;1.30;;
24447;SDS011;13348;50.984;5.822;2022-11-11T08:12:21;4.35;;;1.90;;
24447;SDS011;13348;50.984;5.822;2022-11-11T08:15:06;2.85;;;1.83;;
24447;SDS011;13348;50.984;5.822;2022-11-11T08:17:37;1.80;;;1.70;;
24447;SDS011;13348;50.984;5.822;2022-11-11T08:20:05;4.32;;;1.63;;
24447;SDS011;13348;50.984;5.822;2022-11-11T08:22:36;1.92;;;1.77;;
24447;SDS011;13348;50.984;5.822;2022-11-11T08:25:04;2.45;;;1.73;;
24447;SDS011;13348;50.984;5.822;2022-11-11T08:27:34;1.38;;;1.27;;
24447;SDS011;13348;50.984;5.822;2022-11-11T08:30:03;4.10;;;1.80;;
24447;SDS011;13348;50.984;5.822;2022-11-11T08:32:31;1.70;;;1.23;;
24447;SDS011;13348;50.984;5.822;2022-11-11T08:34:59;1.80;;;1.55;;
24447;SDS011;13348;50.984;5.822;2022-11-11T08:37:26;2.22;;;1.33;;
24447;SDS011;13348;50.984;5.822;2022-11-11T08:39:54;2.95;;;1.70;;
24447;SDS011;13348;50.984;5.822;2022-11-11T08:42:21;2.17;;;1.63;;
24447;SDS011;13348;50.984;5.822;2022-11-11T08:44:50;2.17;;;1.38;;
24447;SDS011;13348;50.984;5.822;2022-11-11T08:47:17;1.63;;;1.52;;
24447;SDS011;13348;50.984;5.822;2022-11-11T08:49:46;2.15;;;1.58;;
24447;SDS011;13348;50.984;5.822;2022-11-11T08:52:15;0.85;;;0.85;;
24447;SDS011;13348;50.984;5.822;2022-11-11T08:54:42;1.55;;;1.50;;
24447;SDS011;13348;50.984;5.822;2022-11-11T08:57:10;1.73;;;1.63;;
24447;SDS011;13348;50.984;5.822;2022-11-11T08:59:37;1.80;;;1.67;;
24447;SDS011;13348;50.984;5.822;2022-11-11T09:02:07;1.55;;;1.45;;
24447;SDS011;13348;50.984;5.822;2022-11-11T09:04:36;2.53;;;1.50;;
24447;SDS011;13348;50.984;5.822;2022-11-11T09:07:04;0.88;;;0.88;;
24447;SDS011;13348;50.984;5.822;2022-11-11T09:09:31;0.88;;;0.88;;
24447;SDS011;13348;50.984;5.822;2022-11-11T09:11:59;2.00;;;1.70;;
24447;SDS011;13348;50.984;5.822;2022-11-11T09:14:26;2.15;;;1.30;;
24447;SDS011;13348;50.984;5.822;2022-11-11T09:16:53;2.97;;;1.70;;
24447;SDS011;13348;50.984;5.822;2022-11-11T09:19:22;1.10;;;1.10;;
24447;SDS011;13348;50.984;5.822;2022-11-11T09:21:49;1.17;;;1.10;;
24447;SDS011;13348;50.984;5.822;2022-11-11T09:24:17;1.52;;;1.42;;
24447;SDS011;13348;50.984;5.822;2022-11-11T09:26:45;2.65;;;1.48;;
24447;SDS011;13348;50.984;5.822;2022-11-11T09:29:13;1.50;;;1.45;;
24447;SDS011;13348;50.984;5.822;2022-11-11T09:31:40;0.90;;;0.90;;
24447;SDS011;13348;50.984;5.822;2022-11-11T09:34:08;1.73;;;1.60;;
24447;SDS011;13348;50.984;5.822;2022-11-11T09:36:36;1.15;;;1.13;;
24447;SDS011;13348;50.984;5.822;2022-11-11T09:39:03;2.00;;;1.75;;
24447;SDS011;13348;50.984;5.822;2022-11-11T09:41:34;2.08;;;1.75;;
24447;SDS011;13348;50.984;5.822;2022-11-11T09:44:10;2.08;;;1.55;;
24447;SDS011;13348;50.984;5.822;2022-11-11T09:46:51;2.35;;;1.65;;
24447;SDS011;13348;50.984;5.822;2022-11-11T09:49:33;1.55;;;1.45;;
24447;SDS011;13348;50.984;5.822;2022-11-11T09:52:13;1.95;;;1.63;;
24447;SDS011;13348;50.984;5.822;2022-11-11T09:54:43;2.25;;;1.83;;
24447;SDS011;13348;50.984;5.822;2022-11-11T09:57:22;2.08;;;1.90;;
24447;SDS011;13348;50.984;5.822;2022-11-11T10:00:03;1.98;;;1.50;;
24447;SDS011;13348;50.984;5.822;2022-11-11T10:02:41;2.63;;;2.00;;
24447;SDS011;13348;50.984;5.822;2022-11-11T10:05:12;1.50;;;1.40;;
24447;SDS011;13348;50.984;5.822;2022-11-11T10:07:44;2.13;;;1.95;;
24447;SDS011;13348;50.984;5.822;2022-11-11T10:10:17;1.00;;;1.00;;
24447;SDS011;13348;50.984;5.822;2022-11-11T10:12:49;1.67;;;1.58;;
24447;SDS011;13348;50.984;5.822;2022-11-11T10:15:20;2.08;;;1.60;;
24447;SDS011;13348;50.984;5.822;2022-11-11T10:17:51;1.98;;;1.58;;
24447;SDS011;13348;50.984;5.822;2022-11-11T10:20:34;0.88;;;0.88;;
24447;SDS011;13348;50.984;5.822;2022-11-11T10:23:10;3.83;;;2.03;;
24447;SDS011;13348;50.984;5.822;2022-11-11T10:25:41;1.85;;;1.63;;
